This is the latest recevied weather packets stored in our database for station/object N7BTW-13. If no packets are shown the sender has not sent any weather packets the latest 10 day(s).
| Time | Temp. | Humidity | Pressure | Rain* | Wind** | Luminosity | Snow |
|---|---|---|---|---|---|---|---|
| 1788024611 | 18.89° C | 68% | - | 0 mm | - | - | - |
| 1788024008 | 18.89° C | 69% | - | 0 mm | - | - | - |
| 1788023407 | 19.44° C | 69% | - | 0 mm | - | - | - |
| 1788022808 | 17.78° C | 75% | - | 0 mm | - | - | - |
| 1788022207 | 17.78° C | 77% | - | 0 mm | - | - | - |
| 1788021606 | 17.78° C | 74% | - | 0 mm | - | - | - |
| 1788021008 | 17.22° C | 79% | - | 0 mm | - | - | - |
| 1788020406 | 16.11° C | 82% | - | 0 mm | - | - | - |
| 1788019807 | 15° C | 86% | - | 0 mm | - | - | - |
| 1788019209 | 15° C | 87% | - | 0 mm | - | - | - |
| 1788018612 | 15° C | 88% | - | 0 mm | - | - | - |
| 1788018007 | 13.33° C | 95% | - | 0 mm | - | - | - |
| 1788017409 | 12.22° C | 99% | - | 0 mm | - | - | - |
| 1788016807 | 11.67° C | 99% | - | 0 mm | - | - | - |
| 1788016206 | 11.11° C | 99% | - | 0 mm | - | - | - |
| 1788015607 | 11.11° C | 99% | - | 0 mm | - | - | - |
| 1788015009 | 10.56° C | 99% | - | 0 mm | - | - | - |
| 1788014410 | 10° C | 99% | - | 0 mm | - | - | - |
| 1788013810 | 10° C | 98% | - | 0 mm | - | - | - |
| 1788013207 | 10° C | 98% | - | 0 mm | - | - | - |
| 1788012608 | 10° C | 97% | - | 0 mm | - | - | - |
| 1788012008 | 10° C | 98% | - | 0 mm | - | - | - |
| 1788011407 | 10.56° C | 98% | - | 0 mm | - | - | - |
| 1788010806 | 10.56° C | 96% | - | 0 mm | - | - | - |
| 1788010210 | 11.11° C | 96% | - | 0 mm | - | - | - |
* Rain latest hour (hover to see other rain measurements)
** Current wind speed in m/s (hover to see current wind gust speed)